createdAt,value
2018-10-05T00:02:21.859Z,13.07
2018-10-05T00:04:51.569Z,20.80
2018-10-05T00:07:21.302Z,18.47
2018-10-05T00:09:50.987Z,23.50
2018-10-05T00:12:20.796Z,25.83
2018-10-05T00:14:50.529Z,20.33
2018-10-05T00:17:20.181Z,20.27
2018-10-05T00:19:50.106Z,15.43
2018-10-05T00:22:20.867Z,21.80
2018-10-05T00:24:50.349Z,19.67
2018-10-05T00:27:21.213Z,29.73
2018-10-05T00:29:52.014Z,21.40
2018-10-05T00:32:21.599Z,21.13
2018-10-05T00:34:51.307Z,17.03
2018-10-05T00:37:20.975Z,27.77
2018-10-05T00:39:50.736Z,30.47
2018-10-05T00:42:20.420Z,18.20
2018-10-05T00:44:50.172Z,21.97
2018-10-05T00:47:19.932Z,20.80
2018-10-05T00:49:49.562Z,20.83
2018-10-05T00:52:19.285Z,21.47
2018-10-05T00:54:49.011Z,23.30
2018-10-05T00:57:25.755Z,16.63
2018-10-05T00:59:55.341Z,20.53
2018-10-05T01:02:24.861Z,22.83
2018-10-05T01:04:54.478Z,16.80
2018-10-05T01:07:24.670Z,18.87
2018-10-05T01:09:54.274Z,21.87
2018-10-05T01:12:23.987Z,19.33
2018-10-05T01:14:53.576Z,17.47
2018-10-05T01:17:23.631Z,21.47
2018-10-05T01:19:53.285Z,32.13
2018-10-05T01:22:22.852Z,17.87
2018-10-05T01:24:52.338Z,18.40
2018-10-05T01:27:21.859Z,15.87
2018-10-05T01:29:51.452Z,15.03
2018-10-05T01:32:21.167Z,18.47
2018-10-05T01:34:50.758Z,23.40
2018-10-05T01:37:20.363Z,17.53
2018-10-05T01:39:49.929Z,17.57
2018-10-05T01:42:19.519Z,23.17
2018-10-05T01:44:49.061Z,16.30
2018-10-05T01:47:18.682Z,23.77
2018-10-05T01:49:48.349Z,19.77
2018-10-05T01:52:18.012Z,17.40
2018-10-05T01:54:47.549Z,15.83
2018-10-05T01:57:17.079Z,18.67
2018-10-05T01:59:46.666Z,15.83
2018-10-05T02:02:16.180Z,18.07
2018-10-05T02:04:45.721Z,20.83
2018-10-05T02:07:15.368Z,13.33
2018-10-05T02:09:44.903Z,16.43
2018-10-05T02:12:14.449Z,15.83
2018-10-05T02:14:44.050Z,17.97
2018-10-05T02:17:13.732Z,15.00
2018-10-05T02:19:43.305Z,16.40
2018-10-05T02:22:13.020Z,18.93
2018-10-05T02:24:42.598Z,14.63
2018-10-05T02:27:12.417Z,16.23
2018-10-05T02:29:42.271Z,16.13
2018-10-05T02:32:11.711Z,17.93
2018-10-05T02:34:41.247Z,17.37
2018-10-05T02:37:10.718Z,17.40
2018-10-05T02:39:40.320Z,13.73
2018-10-05T02:42:09.964Z,14.50
2018-10-05T02:44:39.402Z,16.90
2018-10-05T02:47:09.122Z,14.00
2018-10-05T02:49:38.814Z,14.93
2018-10-05T02:52:08.471Z,13.20
2018-10-05T02:54:37.899Z,16.20
2018-10-05T02:57:07.525Z,17.93
2018-10-05T02:59:37.022Z,17.90
2018-10-05T03:02:17.378Z,14.60
2018-10-05T03:04:47.095Z,16.10
2018-10-05T03:07:16.726Z,17.90
2018-10-05T03:09:46.389Z,17.83
2018-10-05T03:12:15.804Z,19.07
2018-10-05T03:14:45.785Z,17.97
2018-10-05T03:17:17.366Z,21.97
2018-10-05T03:19:47.120Z,21.00
2018-10-05T03:22:16.630Z,18.23
2018-10-05T03:24:46.345Z,17.00
2018-10-05T03:27:15.944Z,15.97
2018-10-05T03:29:46.537Z,18.23
2018-10-05T03:32:16.179Z,20.37
2018-10-05T03:34:45.806Z,12.17
2018-10-05T03:37:15.361Z,15.70
2018-10-05T03:39:44.928Z,15.67
2018-10-05T03:42:14.470Z,16.93
2018-10-05T03:44:44.052Z,12.97
2018-10-05T03:47:13.584Z,16.80
2018-10-05T03:49:43.179Z,45.93
2018-10-05T03:52:13.135Z,32.30
2018-10-05T03:54:42.773Z,20.73
2018-10-05T03:57:12.314Z,17.60
2018-10-05T03:59:42.035Z,26.37
2018-10-05T04:02:11.592Z,25.37
2018-10-05T04:04:41.133Z,21.37
2018-10-05T04:07:11.450Z,18.13
2018-10-05T04:09:41.029Z,16.43
2018-10-05T04:12:10.561Z,14.10
2018-10-05T04:14:40.159Z,19.03
2018-10-05T04:17:09.986Z,26.97
2018-10-05T04:19:39.532Z,19.20
2018-10-05T04:22:09.295Z,18.17
2018-10-05T04:24:38.955Z,16.83
2018-10-05T04:27:08.570Z,15.40
2018-10-05T04:29:38.117Z,22.17
2018-10-05T04:32:07.907Z,22.33
2018-10-05T04:34:37.407Z,17.53
2018-10-05T04:37:06.951Z,22.73
2018-10-05T04:39:36.460Z,21.33
2018-10-05T04:42:06.072Z,15.43
2018-10-05T04:44:35.723Z,19.13
2018-10-05T04:47:05.362Z,14.93
2018-10-05T04:49:35.229Z,20.23
2018-10-05T04:52:04.571Z,19.73
2018-10-05T04:54:34.159Z,15.27
2018-10-05T04:57:03.681Z,17.37
2018-10-05T04:59:33.259Z,23.77
2018-10-05T05:02:02.973Z,20.47
2018-10-05T05:04:32.567Z,24.53
2018-10-05T05:07:02.115Z,20.43
2018-10-05T05:09:32.602Z,30.73
2018-10-05T05:12:02.160Z,24.27
2018-10-05T05:14:32.014Z,28.03
2018-10-05T05:17:01.594Z,20.10
2018-10-05T05:19:31.180Z,26.63
2018-10-05T05:22:00.751Z,23.30
2018-10-05T05:24:30.442Z,30.60
2018-10-05T05:26:59.982Z,36.07
2018-10-05T05:29:29.578Z,37.70
2018-10-05T05:31:59.304Z,19.33
2018-10-05T05:34:28.958Z,30.97
2018-10-05T05:36:58.537Z,23.23
2018-10-05T05:39:27.991Z,25.40
2018-10-05T05:41:57.572Z,25.20
2018-10-05T05:44:27.236Z,24.37
2018-10-05T05:46:56.797Z,30.70
2018-10-05T05:49:26.466Z,27.87
2018-10-05T05:51:56.198Z,22.63
2018-10-05T05:54:25.738Z,28.10
2018-10-05T05:56:55.430Z,25.43
2018-10-05T05:59:25.702Z,32.20
2018-10-05T06:01:55.340Z,31.30
2018-10-05T06:04:24.915Z,29.57
2018-10-05T06:06:54.604Z,34.07
2018-10-05T06:09:24.647Z,18.23
2018-10-05T06:11:54.280Z,19.80
2018-10-05T06:14:23.878Z,28.57
2018-10-05T06:16:54.682Z,30.83
2018-10-05T06:19:24.196Z,25.97
2018-10-05T06:21:53.781Z,20.40
2018-10-05T06:24:23.730Z,32.90
2018-10-05T06:26:53.323Z,27.90
2018-10-05T06:29:22.834Z,21.27
2018-10-05T06:31:52.431Z,24.50
2018-10-05T06:34:22.196Z,21.93
2018-10-05T06:36:51.718Z,42.10
2018-10-05T06:39:21.379Z,24.33
2018-10-05T06:41:50.937Z,41.63
2018-10-05T06:44:20.819Z,24.67
2018-10-05T06:46:50.601Z,18.50
2018-10-05T06:49:20.308Z,20.97
2018-10-05T06:51:49.930Z,20.77
2018-10-05T06:54:20.770Z,30.37
2018-10-05T06:56:50.573Z,23.97
2018-10-05T06:59:20.204Z,35.83
2018-10-05T07:01:49.807Z,23.50
2018-10-05T07:04:19.341Z,17.03
2018-10-05T07:06:49.025Z,18.97
2018-10-05T07:09:18.759Z,29.47
2018-10-05T07:11:48.279Z,21.80
2018-10-05T07:14:17.932Z,21.53
2018-10-05T07:16:47.576Z,22.73
2018-10-05T07:19:17.035Z,27.07
2018-10-05T07:21:46.603Z,28.73
2018-10-05T07:24:16.117Z,30.37
2018-10-05T07:26:45.627Z,19.93
2018-10-05T07:29:15.075Z,19.50
2018-10-05T07:31:44.747Z,24.70
2018-10-05T07:34:14.388Z,19.40
2018-10-05T07:36:44.390Z,27.77
2018-10-05T07:39:13.894Z,35.17
2018-10-05T07:41:44.367Z,31.37
2018-10-05T07:44:13.993Z,22.87
2018-10-05T07:46:43.632Z,25.20
2018-10-05T07:49:13.137Z,25.67
2018-10-05T07:51:42.748Z,33.15
2018-10-05T07:54:12.409Z,22.40
2018-10-05T07:56:43.144Z,33.67
2018-10-05T07:59:13.467Z,28.10
2018-10-05T08:01:43.103Z,37.90
2018-10-05T08:04:12.742Z,23.40
2018-10-05T08:06:42.260Z,38.03
2018-10-05T08:09:12.065Z,25.37
2018-10-05T08:11:41.880Z,28.10
2018-10-05T08:14:11.726Z,32.83
2018-10-05T08:16:41.309Z,27.43
2018-10-05T08:19:10.864Z,24.70
2018-10-05T08:21:40.559Z,24.23
2018-10-05T08:24:10.047Z,23.77
2018-10-05T08:26:39.705Z,15.97
2018-10-05T08:29:09.427Z,61.53
2018-10-05T08:31:39.995Z,21.03
2018-10-05T08:34:09.600Z,17.13
2018-10-05T08:36:39.681Z,29.97
2018-10-05T08:39:11.799Z,16.90
2018-10-05T08:41:41.540Z,22.67
2018-10-05T08:44:11.408Z,16.80
2018-10-05T08:46:41.071Z,13.90
2018-10-05T08:49:10.665Z,14.73
2018-10-05T08:51:40.818Z,15.87
2018-10-05T08:54:10.582Z,14.43
2018-10-05T08:56:40.876Z,22.97
2018-10-05T08:59:12.930Z,13.87
2018-10-05T09:01:42.519Z,14.90
2018-10-05T09:04:12.138Z,12.10
2018-10-05T09:06:41.757Z,14.07
2018-10-05T09:09:12.301Z,12.27
2018-10-05T09:11:41.788Z,10.57
2018-10-05T09:14:11.329Z,11.77
2018-10-05T09:16:41.123Z,8.40
2018-10-05T09:19:10.779Z,13.90
2018-10-05T09:21:40.274Z,10.37
2018-10-05T09:24:09.887Z,10.50
2018-10-05T09:26:39.549Z,11.07
2018-10-05T09:29:09.087Z,21.20
2018-10-05T09:31:39.531Z,15.88
2018-10-05T09:34:09.769Z,11.73
2018-10-05T09:36:39.420Z,11.47
2018-10-05T09:39:09.188Z,15.23
2018-10-05T09:41:38.777Z,10.53
2018-10-05T09:44:08.286Z,16.87
2018-10-05T09:46:37.969Z,12.57
2018-10-05T09:49:07.426Z,11.47
2018-10-05T09:51:36.898Z,9.73
2018-10-05T09:54:06.467Z,9.73
2018-10-05T09:56:36.046Z,10.30
2018-10-05T09:59:06.234Z,12.90
2018-10-05T10:01:40.885Z,16.07
2018-10-05T10:04:10.469Z,14.43
2018-10-05T10:06:39.911Z,15.77
2018-10-05T10:09:10.335Z,22.67
2018-10-05T10:11:39.793Z,16.93
2018-10-05T10:14:09.348Z,14.03
2018-10-05T10:16:38.811Z,14.07
2018-10-05T10:19:08.490Z,18.30
2018-10-05T10:21:38.235Z,12.97
2018-10-05T10:24:07.676Z,16.37
2018-10-05T10:26:37.415Z,10.10
2018-10-05T10:29:07.054Z,9.60
2018-10-05T10:31:37.555Z,14.80
2018-10-05T10:34:07.103Z,7.53
2018-10-05T10:36:37.416Z,13.00
2018-10-05T10:39:08.491Z,9.87
2018-10-05T10:41:38.080Z,13.93
2018-10-05T10:44:07.852Z,13.07
2018-10-05T10:46:37.456Z,10.67
2018-10-05T10:49:07.409Z,12.33
2018-10-05T10:51:37.105Z,7.73
2018-10-05T10:54:07.521Z,10.27
2018-10-05T10:56:37.204Z,15.83
2018-10-05T10:59:06.804Z,8.67
2018-10-05T11:01:36.461Z,9.17
2018-10-05T11:04:06.119Z,6.20
2018-10-05T11:06:35.748Z,10.53
2018-10-05T11:09:06.289Z,12.23
2018-10-05T11:11:35.891Z,9.23
2018-10-05T11:14:05.507Z,9.33
2018-10-05T11:16:35.791Z,17.10
2018-10-05T11:19:05.398Z,10.10
2018-10-05T11:21:35.067Z,11.80
2018-10-05T11:24:04.753Z,7.30
2018-10-05T11:26:34.267Z,15.37
2018-10-05T11:29:03.712Z,8.07
2018-10-05T11:31:33.386Z,11.33
2018-10-05T11:34:02.918Z,10.30
2018-10-05T11:36:32.560Z,10.00
2018-10-05T11:39:02.079Z,13.40
2018-10-05T11:41:31.846Z,9.23
2018-10-05T11:44:01.422Z,14.87
2018-10-05T11:46:31.038Z,17.33
2018-10-05T11:49:00.611Z,12.17
2018-10-05T11:51:30.026Z,8.53
2018-10-05T11:53:59.825Z,15.57
2018-10-05T11:56:29.738Z,19.17
2018-10-05T11:58:59.266Z,12.93
2018-10-05T12:01:29.081Z,18.27
2018-10-05T12:03:58.719Z,14.73
2018-10-05T12:06:28.225Z,19.37
2018-10-05T12:08:57.985Z,17.97
2018-10-05T12:11:28.592Z,19.67
2018-10-05T12:13:58.998Z,15.57
2018-10-05T12:16:28.569Z,14.17
2018-10-05T12:18:58.074Z,12.63
2018-10-05T12:21:27.721Z,8.43
2018-10-05T12:23:57.335Z,12.13
2018-10-05T12:26:26.947Z,16.17
2018-10-05T12:28:56.734Z,11.43
2018-10-05T12:31:26.333Z,8.47
2018-10-05T12:33:56.169Z,12.73
2018-10-05T12:36:25.675Z,11.40
2018-10-05T12:38:55.375Z,15.63
2018-10-05T12:41:26.348Z,12.53
2018-10-05T12:43:56.465Z,13.60
2018-10-05T12:46:26.911Z,9.97
2018-10-05T12:48:56.567Z,11.33
2018-10-05T12:51:26.147Z,8.53
2018-10-05T12:53:55.765Z,14.27
2018-10-05T12:56:25.292Z,12.43
2018-10-05T12:58:54.893Z,15.07
2018-10-05T13:01:24.552Z,11.23
2018-10-05T13:03:54.787Z,10.83
2018-10-05T13:06:24.423Z,9.47
2018-10-05T13:08:54.100Z,15.20
2018-10-05T13:11:23.756Z,13.13
2018-10-05T13:13:53.332Z,16.23
2018-10-05T13:16:22.890Z,8.37
2018-10-05T13:18:52.823Z,9.03
2018-10-05T13:21:22.476Z,10.43
2018-10-05T13:23:52.104Z,13.60
2018-10-05T13:26:21.758Z,9.50
2018-10-05T13:28:51.428Z,9.67
2018-10-05T13:31:20.983Z,13.97
2018-10-05T13:33:50.663Z,19.07
2018-10-05T13:36:20.307Z,11.10
2018-10-05T13:38:49.921Z,13.60
2018-10-05T13:41:19.562Z,11.20
2018-10-05T13:43:49.119Z,13.73
2018-10-05T13:46:18.707Z,12.97
2018-10-05T13:48:48.360Z,11.23
2018-10-05T13:51:18.059Z,13.33
2018-10-05T13:53:47.605Z,14.80
2018-10-05T13:56:17.378Z,16.97
2018-10-05T13:58:46.824Z,28.03
2018-10-05T14:01:17.804Z,9.77
2018-10-05T14:03:47.190Z,10.07
2018-10-05T14:06:16.783Z,15.70
2018-10-05T14:08:46.294Z,23.40
2018-10-05T14:11:16.005Z,15.47
2018-10-05T14:13:45.690Z,14.43
2018-10-05T14:16:15.230Z,15.73
2018-10-05T14:18:44.734Z,13.73
2018-10-05T14:21:14.467Z,11.13
2018-10-05T14:23:44.482Z,10.70
2018-10-05T14:26:14.206Z,18.27
2018-10-05T14:28:43.944Z,9.50
2018-10-05T14:31:14.011Z,15.47
2018-10-05T14:33:43.698Z,14.53
2018-10-05T14:36:13.364Z,12.20
2018-10-05T14:38:42.927Z,16.23
2018-10-05T14:41:12.527Z,10.90
2018-10-05T14:43:42.181Z,15.13
2018-10-05T14:46:11.716Z,13.30
2018-10-05T14:48:41.298Z,35.27
2018-10-05T14:51:10.832Z,23.67
2018-10-05T14:53:40.483Z,18.93
2018-10-05T14:56:10.270Z,18.43
2018-10-05T14:58:39.763Z,13.60
2018-10-05T15:01:09.260Z,17.67
2018-10-05T15:03:39.000Z,17.60
2018-10-05T15:06:08.495Z,28.10
2018-10-05T15:08:38.153Z,12.73
2018-10-05T15:11:07.787Z,22.53
2018-10-05T15:13:37.354Z,17.27
2018-10-05T15:16:06.913Z,18.90
2018-10-05T15:18:36.835Z,14.73
2018-10-05T15:21:06.426Z,16.93
2018-10-05T15:23:35.993Z,14.53
2018-10-05T15:26:05.576Z,20.47
2018-10-05T15:28:35.165Z,12.17
2018-10-05T15:31:04.805Z,14.40
2018-10-05T15:33:34.488Z,16.17
2018-10-05T15:36:04.251Z,15.27
2018-10-05T15:38:33.857Z,22.57
2018-10-05T15:41:03.473Z,12.63
2018-10-05T15:43:33.123Z,20.20
2018-10-05T15:46:06.931Z,14.33
2018-10-05T15:48:37.022Z,15.33
2018-10-05T15:51:08.022Z,14.63
2018-10-05T15:53:37.680Z,16.03
2018-10-05T15:56:07.408Z,17.63
2018-10-05T15:58:37.068Z,15.20
2018-10-05T16:01:06.758Z,13.97
2018-10-05T16:03:36.325Z,27.43
2018-10-05T16:06:05.953Z,14.67
2018-10-05T16:08:36.178Z,17.83
2018-10-05T16:11:05.682Z,14.93
2018-10-05T16:13:35.289Z,18.23
2018-10-05T16:16:04.852Z,13.47
2018-10-05T16:18:34.444Z,11.50
2018-10-05T16:21:04.156Z,20.67
2018-10-05T16:23:34.235Z,16.53
2018-10-05T16:26:03.803Z,15.23
2018-10-05T16:28:33.700Z,23.27
2018-10-05T16:31:03.363Z,17.47
2018-10-05T16:33:33.087Z,20.83
2018-10-05T16:36:02.718Z,18.57
2018-10-05T16:38:32.256Z,24.90
2018-10-05T16:41:01.806Z,32.37
2018-10-05T16:43:31.396Z,24.23
2018-10-05T16:46:01.020Z,22.73
2018-10-05T16:48:30.579Z,32.57
2018-10-05T16:51:00.368Z,21.80
2018-10-05T16:53:31.091Z,24.20
2018-10-05T16:56:00.659Z,19.93
2018-10-05T16:58:30.334Z,31.20
2018-10-05T17:00:59.885Z,34.13
2018-10-05T17:03:29.429Z,33.60
2018-10-05T17:05:59.106Z,35.17
2018-10-05T17:08:29.958Z,42.63
2018-10-05T17:10:59.610Z,56.00
2018-10-05T17:13:29.225Z,47.40
2018-10-05T17:15:58.781Z,34.17
2018-10-05T17:18:28.271Z,40.93
2018-10-05T17:20:58.290Z,36.50
2018-10-05T17:23:27.953Z,37.23
2018-10-05T17:25:57.627Z,32.27
2018-10-05T17:28:27.355Z,54.03
2018-10-05T17:30:57.065Z,36.27
2018-10-05T17:33:26.727Z,32.43
2018-10-05T17:35:56.280Z,33.43
2018-10-05T17:38:26.245Z,25.17
2018-10-05T17:40:55.745Z,30.63
2018-10-05T17:43:25.272Z,26.93
2018-10-05T17:45:54.839Z,29.83
2018-10-05T17:48:24.500Z,28.73
2018-10-05T17:50:54.002Z,23.63
2018-10-05T17:53:23.644Z,25.53
2018-10-05T17:55:53.383Z,24.27
2018-10-05T17:58:22.929Z,20.67
2018-10-05T18:00:52.472Z,20.27
2018-10-05T18:03:22.004Z,22.50
2018-10-05T18:05:51.572Z,20.37
2018-10-05T18:08:21.254Z,19.90
2018-10-05T18:10:50.803Z,31.13
2018-10-05T18:13:20.328Z,18.80
2018-10-05T18:15:51.432Z,28.30
2018-10-05T18:18:21.039Z,22.23
2018-10-05T18:20:51.068Z,26.83
2018-10-05T18:23:20.629Z,16.43
2018-10-05T18:25:50.917Z,22.60
2018-10-05T18:28:20.568Z,24.90
2018-10-05T18:30:50.050Z,18.47
2018-10-05T18:33:19.774Z,23.17
2018-10-05T18:35:49.467Z,24.13
2018-10-05T18:38:19.067Z,21.97
2018-10-05T18:40:48.819Z,26.87
2018-10-05T18:43:18.373Z,24.57
2018-10-05T18:45:47.988Z,32.97
2018-10-05T18:48:17.482Z,24.10
2018-10-05T18:50:48.043Z,26.60
2018-10-05T18:53:17.620Z,26.57
2018-10-05T18:55:47.287Z,24.00
2018-10-05T18:58:16.900Z,25.47
2018-10-05T19:00:46.447Z,29.87
2018-10-05T19:03:16.106Z,22.77
2018-10-05T19:05:45.871Z,26.30
2018-10-05T19:08:15.441Z,27.77
2018-10-05T19:10:45.071Z,24.17
2018-10-05T19:13:14.430Z,22.73
2018-10-05T19:15:44.040Z,28.50
2018-10-05T19:18:13.645Z,19.43
2018-10-05T19:20:43.228Z,17.57
2018-10-05T19:23:12.904Z,21.83
2018-10-05T19:25:42.670Z,23.87
2018-10-05T19:28:12.182Z,27.67
2018-10-05T19:30:41.724Z,20.83
2018-10-05T19:33:11.585Z,23.40
2018-10-05T19:35:41.189Z,19.60
2018-10-05T19:38:10.777Z,19.23
2018-10-05T19:40:40.449Z,19.37
2018-10-05T19:43:10.024Z,19.37
2018-10-05T19:45:39.591Z,24.97
2018-10-05T19:48:09.162Z,19.23
2018-10-05T19:50:38.724Z,18.13
2018-10-05T19:53:08.483Z,24.43
2018-10-05T19:55:38.122Z,17.17
2018-10-05T19:58:07.596Z,20.20
2018-10-05T20:00:36.987Z,53.43
2018-10-05T20:03:06.665Z,26.63
2018-10-05T20:05:36.411Z,29.90
2018-10-05T20:08:06.056Z,23.17
2018-10-05T20:10:35.891Z,23.17
2018-10-05T20:13:06.014Z,24.50
2018-10-05T20:15:35.594Z,21.87
2018-10-05T20:18:05.335Z,32.83
2018-10-05T20:20:34.991Z,26.13
2018-10-05T20:23:04.544Z,27.07
2018-10-05T20:25:34.110Z,24.13
2018-10-05T20:28:03.847Z,29.33
2018-10-05T20:30:33.521Z,18.87
2018-10-05T20:33:03.076Z,25.03
2018-10-05T20:35:34.565Z,21.20
2018-10-05T20:38:04.217Z,24.73
2018-10-05T20:40:33.882Z,18.00
2018-10-05T20:43:03.406Z,18.47
2018-10-05T20:45:32.851Z,16.93
2018-10-05T20:48:02.460Z,19.60
2018-10-05T20:50:32.013Z,18.37
2018-10-05T20:53:01.632Z,16.13
2018-10-05T20:55:31.180Z,16.67
2018-10-05T20:58:01.554Z,14.27
2018-10-05T21:00:31.250Z,18.87
2018-10-05T21:03:00.808Z,18.50
2018-10-05T21:05:30.395Z,14.20
2018-10-05T21:08:00.105Z,17.50
2018-10-05T21:10:29.736Z,17.60
2018-10-05T21:12:59.403Z,22.03
2018-10-05T21:15:28.971Z,25.13
2018-10-05T21:17:58.611Z,21.07
2018-10-05T21:20:28.255Z,20.67
2018-10-05T21:22:57.910Z,19.20
2018-10-05T21:25:27.448Z,24.30
2018-10-05T21:27:56.990Z,21.23
2018-10-05T21:30:26.549Z,22.40
2018-10-05T21:32:56.204Z,22.57
2018-10-05T21:35:25.863Z,25.07
2018-10-05T21:37:55.260Z,20.70
2018-10-05T21:40:24.743Z,21.53
2018-10-05T21:42:54.433Z,27.73
2018-10-05T21:45:24.030Z,24.50
2018-10-05T21:47:53.458Z,25.30
2018-10-05T21:50:23.053Z,23.10
2018-10-05T21:52:52.929Z,24.47
2018-10-05T21:55:22.551Z,24.20
2018-10-05T21:57:52.124Z,27.07
2018-10-05T22:00:21.729Z,30.10
2018-10-05T22:02:51.482Z,24.97
2018-10-05T22:05:21.070Z,24.87
2018-10-05T22:07:50.708Z,28.87
2018-10-05T22:10:20.289Z,25.70
2018-10-05T22:12:49.925Z,24.50
2018-10-05T22:15:19.370Z,31.00
2018-10-05T22:17:49.499Z,30.67
2018-10-05T22:20:19.136Z,25.33
2018-10-05T22:22:48.811Z,27.30
2018-10-05T22:25:18.444Z,26.93
2018-10-05T22:27:48.083Z,29.87
2018-10-05T22:30:17.547Z,24.10
2018-10-05T22:32:47.179Z,28.37
2018-10-05T22:35:16.866Z,24.63
2018-10-05T22:37:46.526Z,31.63
2018-10-05T22:40:16.108Z,21.67
2018-10-05T22:42:45.703Z,29.83
2018-10-05T22:45:15.415Z,25.90
2018-10-05T22:47:44.939Z,28.13
2018-10-05T22:50:14.620Z,30.33
2018-10-05T22:52:44.248Z,28.77
2018-10-05T22:55:13.862Z,29.53
2018-10-05T22:57:43.542Z,27.63
2018-10-05T23:00:13.233Z,29.13
2018-10-05T23:02:42.724Z,29.60
2018-10-05T23:05:12.897Z,29.10
2018-10-05T23:07:42.479Z,32.63
2018-10-05T23:10:12.084Z,26.70
2018-10-05T23:12:41.681Z,24.53
2018-10-05T23:15:11.773Z,31.70
2018-10-05T23:17:41.663Z,29.10
2018-10-05T23:20:11.338Z,36.90
2018-10-05T23:22:40.891Z,30.93
2018-10-05T23:25:10.574Z,27.00
2018-10-05T23:27:39.977Z,29.93
2018-10-05T23:30:09.549Z,28.60
2018-10-05T23:32:39.163Z,33.93
2018-10-05T23:35:08.683Z,28.23
2018-10-05T23:37:39.500Z,28.73
2018-10-05T23:40:09.138Z,26.13
2018-10-05T23:42:39.434Z,26.57
2018-10-05T23:45:09.047Z,27.03
2018-10-05T23:47:39.143Z,29.73
2018-10-05T23:50:09.108Z,29.17
2018-10-05T23:52:57.037Z,27.77
2018-10-05T23:55:26.720Z,31.00
2018-10-05T23:57:56.699Z,30.53
